createdAt,value
2019-05-19T00:00:34.556Z,15.33
2019-05-19T00:03:01.961Z,15.30
2019-05-19T00:05:29.375Z,15.00
2019-05-19T00:07:56.796Z,14.83
2019-05-19T00:10:24.231Z,14.97
2019-05-19T00:12:51.575Z,15.77
2019-05-19T00:15:18.935Z,14.93
2019-05-19T00:17:46.287Z,15.97
2019-05-19T00:20:13.810Z,16.63
2019-05-19T00:22:41.157Z,15.70
2019-05-19T00:25:08.461Z,14.93
2019-05-19T00:27:35.817Z,15.47
2019-05-19T00:30:04.148Z,16.13
2019-05-19T00:32:31.472Z,16.07
2019-05-19T00:34:58.899Z,15.97
2019-05-19T00:37:26.220Z,16.30
2019-05-19T00:39:53.586Z,16.83
2019-05-19T00:42:20.911Z,16.33
2019-05-19T00:44:48.332Z,15.80
2019-05-19T00:47:15.646Z,18.07
2019-05-19T00:49:42.994Z,16.27
2019-05-19T00:52:10.398Z,16.90
2019-05-19T00:54:37.808Z,16.03
2019-05-19T00:57:05.124Z,17.03
2019-05-19T00:59:32.763Z,15.47
2019-05-19T01:02:00.084Z,15.70
2019-05-19T01:04:27.518Z,17.63
2019-05-19T01:06:54.954Z,16.83
2019-05-19T01:09:22.382Z,16.37
2019-05-19T01:11:50.062Z,16.60
2019-05-19T01:14:17.470Z,17.17
2019-05-19T01:16:44.786Z,15.83
2019-05-19T01:19:12.144Z,17.10
2019-05-19T01:21:39.529Z,16.60
2019-05-19T01:24:06.872Z,16.50
2019-05-19T01:26:34.199Z,16.23
2019-05-19T01:29:01.544Z,17.07
2019-05-19T01:31:28.919Z,16.27
2019-05-19T01:33:56.356Z,16.00
2019-05-19T01:36:24.145Z,16.27
2019-05-19T01:38:51.475Z,15.67
2019-05-19T01:41:18.894Z,14.93
2019-05-19T01:43:46.159Z,16.50
2019-05-19T01:46:13.556Z,16.43
2019-05-19T01:48:40.854Z,15.67
2019-05-19T01:51:08.241Z,15.77
2019-05-19T01:53:35.597Z,14.77
2019-05-19T01:56:02.953Z,14.93
2019-05-19T01:58:30.263Z,13.50
2019-05-19T02:00:57.696Z,12.37
2019-05-19T02:03:25.506Z,13.03
2019-05-19T02:05:52.920Z,13.47
2019-05-19T02:08:20.265Z,11.80
2019-05-19T02:10:47.588Z,12.30
2019-05-19T02:13:14.913Z,12.57
2019-05-19T02:15:42.321Z,10.63
2019-05-19T02:18:09.643Z,12.00
2019-05-19T02:20:36.997Z,10.77
2019-05-19T02:23:04.333Z,11.40
2019-05-19T02:25:31.674Z,12.20
2019-05-19T02:27:59.151Z,11.83
2019-05-19T02:30:26.870Z,11.90
2019-05-19T02:32:54.208Z,11.57
2019-05-19T02:35:21.547Z,11.30
2019-05-19T02:37:48.874Z,12.07
2019-05-19T02:40:16.199Z,11.00
2019-05-19T02:42:43.587Z,11.70
2019-05-19T02:45:10.903Z,12.13
2019-05-19T02:47:38.509Z,11.10
2019-05-19T02:50:06.407Z,12.77
2019-05-19T02:52:33.778Z,11.70
2019-05-19T02:55:01.125Z,12.10
2019-05-19T02:57:28.906Z,11.20
2019-05-19T02:59:56.322Z,10.50
2019-05-19T03:02:23.695Z,11.97
2019-05-19T03:04:51.042Z,12.07
2019-05-19T03:07:18.361Z,12.63
2019-05-19T03:09:45.780Z,12.17
2019-05-19T03:12:13.171Z,12.80
2019-05-19T03:14:40.521Z,12.33
2019-05-19T03:17:07.846Z,12.70
2019-05-19T03:19:35.299Z,12.43
2019-05-19T03:22:02.632Z,12.63
2019-05-19T03:24:30.267Z,12.10
2019-05-19T03:26:57.647Z,12.13
2019-05-19T03:29:26.722Z,12.80
2019-05-19T03:32:13.264Z,11.43
2019-05-19T03:34:41.034Z,12.43
2019-05-19T03:37:08.390Z,13.17
2019-05-19T03:39:35.781Z,12.57
2019-05-19T03:42:03.204Z,12.23
2019-05-19T03:44:30.551Z,12.47
2019-05-19T03:46:58.070Z,12.53
2019-05-19T03:49:25.453Z,11.87
2019-05-19T03:51:52.771Z,11.00
2019-05-19T03:54:20.180Z,11.23
2019-05-19T03:56:47.536Z,11.63
2019-05-19T03:59:14.856Z,11.53
2019-05-19T04:01:42.277Z,11.50
2019-05-19T04:04:09.574Z,11.43
2019-05-19T04:06:36.938Z,11.53
2019-05-19T04:09:05.634Z,12.37
2019-05-19T04:11:32.939Z,12.23
2019-05-19T04:14:00.369Z,12.27
2019-05-19T04:16:27.791Z,12.13
2019-05-19T04:18:55.107Z,13.47
2019-05-19T04:21:22.536Z,13.77
2019-05-19T04:23:49.849Z,12.73
2019-05-19T04:26:17.207Z,12.17
2019-05-19T04:28:44.562Z,12.13
2019-05-19T04:31:11.934Z,11.80
2019-05-19T04:33:39.330Z,10.60
2019-05-19T04:36:06.715Z,11.47
2019-05-19T04:38:34.164Z,10.03
2019-05-19T04:41:01.477Z,10.70
2019-05-19T04:43:28.825Z,10.80
2019-05-19T04:45:56.295Z,11.27
2019-05-19T04:48:23.714Z,10.57
2019-05-19T04:50:51.064Z,9.53
2019-05-19T04:53:18.438Z,11.03
2019-05-19T04:55:45.875Z,9.60
2019-05-19T04:58:13.193Z,9.83
2019-05-19T05:00:40.578Z,9.50
2019-05-19T05:03:07.968Z,10.00
2019-05-19T05:05:35.384Z,9.80
2019-05-19T05:08:02.738Z,9.37
2019-05-19T05:10:30.043Z,9.47
2019-05-19T05:12:58.740Z,8.00
2019-05-19T05:15:26.015Z,8.93
2019-05-19T05:17:53.355Z,9.17
2019-05-19T05:20:20.735Z,9.00
2019-05-19T05:22:48.104Z,8.77
2019-05-19T05:25:15.485Z,8.70
2019-05-19T05:27:42.819Z,8.67
2019-05-19T05:30:10.136Z,8.27
2019-05-19T05:32:37.547Z,8.63
2019-05-19T05:35:04.923Z,8.20
2019-05-19T05:37:32.277Z,8.33
2019-05-19T05:39:59.590Z,7.60
2019-05-19T05:42:27.000Z,7.83
2019-05-19T05:44:54.330Z,7.63
2019-05-19T05:47:21.715Z,7.12
2019-05-19T05:49:50.330Z,7.17
2019-05-19T05:52:17.882Z,6.70
2019-05-19T05:54:45.214Z,7.13
2019-05-19T05:57:12.550Z,6.95
2019-05-19T05:59:40.052Z,6.80
2019-05-19T06:02:07.403Z,6.95
2019-05-19T06:04:34.700Z,6.58
2019-05-19T06:07:02.032Z,6.83
2019-05-19T06:09:29.354Z,7.27
2019-05-19T06:11:56.690Z,6.97
2019-05-19T06:14:24.208Z,8.20
2019-05-19T06:16:51.567Z,7.30
2019-05-19T06:19:18.933Z,7.10
2019-05-19T06:21:46.217Z,7.22
2019-05-19T06:24:13.603Z,6.50
2019-05-19T06:26:40.978Z,8.15
2019-05-19T06:29:08.304Z,6.05
2019-05-19T06:31:35.718Z,6.42
2019-05-19T06:34:03.052Z,7.03
2019-05-19T06:36:30.380Z,6.50
2019-05-19T06:38:57.723Z,8.17
2019-05-19T06:41:25.051Z,7.00
2019-05-19T06:43:52.435Z,7.13
2019-05-19T06:46:19.800Z,8.53
2019-05-19T06:48:47.627Z,7.33
2019-05-19T06:51:14.985Z,7.72
2019-05-19T06:53:42.761Z,7.90
2019-05-19T06:56:10.295Z,8.43
2019-05-19T06:58:37.601Z,7.77
2019-05-19T07:01:04.943Z,6.80
2019-05-19T07:03:32.255Z,7.67
2019-05-19T07:05:59.603Z,7.73
2019-05-19T07:08:27.013Z,7.70
2019-05-19T07:10:54.496Z,7.40
2019-05-19T07:13:21.824Z,9.70
2019-05-19T07:15:49.340Z,8.07
2019-05-19T07:18:16.733Z,7.90
2019-05-19T07:20:44.158Z,8.63
2019-05-19T07:23:11.524Z,7.47
2019-05-19T07:25:38.835Z,7.70
2019-05-19T07:28:06.315Z,8.28
2019-05-19T07:30:33.699Z,7.85
2019-05-19T07:33:02.753Z,7.33
2019-05-19T07:35:30.143Z,7.28
2019-05-19T07:37:57.558Z,7.80
2019-05-19T07:40:25.164Z,8.00
2019-05-19T07:42:52.590Z,7.33
2019-05-19T07:45:19.984Z,8.38
2019-05-19T07:47:47.447Z,8.43
2019-05-19T07:50:14.855Z,7.90
2019-05-19T07:52:42.287Z,7.57
2019-05-19T07:55:09.925Z,9.18
2019-05-19T07:57:37.434Z,8.40
2019-05-19T08:00:06.471Z,7.00
2019-05-19T08:02:33.923Z,8.78
2019-05-19T08:05:01.227Z,8.35
2019-05-19T08:07:28.633Z,6.90
2019-05-19T08:09:55.985Z,8.85
2019-05-19T08:12:23.303Z,8.68
2019-05-19T08:14:50.703Z,8.33
2019-05-19T08:17:18.192Z,8.50
2019-05-19T08:19:45.508Z,7.28
2019-05-19T08:22:12.872Z,9.25
2019-05-19T08:24:40.207Z,7.95
2019-05-19T08:27:07.581Z,8.10
2019-05-19T08:29:34.976Z,7.83
2019-05-19T08:32:02.367Z,7.60
2019-05-19T08:34:29.708Z,8.23
2019-05-19T08:36:57.909Z,7.92
2019-05-19T08:39:25.343Z,7.75
2019-05-19T08:41:52.663Z,6.47
2019-05-19T08:44:20.029Z,6.95
2019-05-19T08:46:47.360Z,7.17
2019-05-19T08:49:14.708Z,6.75
2019-05-19T08:51:42.146Z,7.58
2019-05-19T08:54:15.194Z,7.40
2019-05-19T08:56:38.777Z,6.65
2019-05-19T08:59:06.175Z,7.30
2019-05-19T09:01:33.531Z,6.83
2019-05-19T09:04:00.876Z,6.62
2019-05-19T09:06:28.206Z,6.58
2019-05-19T09:08:55.735Z,7.20
2019-05-19T09:11:23.075Z,6.10
2019-05-19T09:13:50.499Z,5.67
2019-05-19T09:16:17.936Z,5.60
2019-05-19T09:18:45.309Z,4.83
2019-05-19T09:21:12.647Z,4.83
2019-05-19T09:23:39.993Z,4.00
2019-05-19T09:26:07.307Z,4.75
2019-05-19T09:28:34.660Z,4.30
2019-05-19T09:31:02.043Z,4.22
2019-05-19T09:33:29.405Z,4.33
2019-05-19T09:35:56.846Z,4.67
2019-05-19T09:38:24.498Z,4.28
2019-05-19T09:40:51.832Z,4.28
2019-05-19T09:43:19.239Z,4.85
2019-05-19T09:45:46.655Z,4.15
2019-05-19T09:48:14.079Z,4.05
2019-05-19T09:50:41.508Z,4.08
2019-05-19T09:53:08.841Z,3.90
2019-05-19T09:55:36.292Z,3.40
2019-05-19T09:58:03.726Z,3.85
2019-05-19T10:00:31.440Z,3.20
2019-05-19T10:02:58.793Z,3.37
2019-05-19T10:05:26.223Z,3.58
2019-05-19T10:07:53.697Z,4.22
2019-05-19T10:10:22.695Z,4.00
2019-05-19T10:12:50.157Z,3.67
2019-05-19T10:15:17.531Z,3.72
2019-05-19T10:17:44.852Z,4.25
2019-05-19T10:20:12.264Z,3.60
2019-05-19T10:22:39.601Z,3.10
2019-05-19T10:25:21.086Z,3.22
2019-05-19T10:27:36.507Z,2.95
2019-05-19T10:30:05.876Z,2.55
2019-05-19T10:32:33.293Z,2.92
2019-05-19T10:35:00.786Z,3.80
2019-05-19T10:37:28.188Z,3.58
2019-05-19T10:39:55.654Z,4.97
2019-05-19T10:42:23.170Z,4.20
2019-05-19T10:44:50.468Z,4.65
2019-05-19T10:47:17.874Z,4.35
2019-05-19T10:49:45.418Z,4.33
2019-05-19T10:52:12.845Z,4.58
2019-05-19T10:54:40.159Z,4.53
2019-05-19T10:57:07.598Z,4.30
2019-05-19T10:59:34.959Z,4.05
2019-05-19T11:02:02.534Z,3.75
2019-05-19T11:04:30.024Z,4.08
2019-05-19T11:06:57.502Z,4.92
2019-05-19T11:09:24.913Z,4.30
2019-05-19T11:11:52.206Z,4.10
2019-05-19T11:14:19.554Z,4.22
2019-05-19T11:16:46.904Z,4.60
2019-05-19T11:19:14.262Z,4.50
2019-05-19T11:21:41.575Z,5.30
2019-05-19T11:24:08.907Z,4.75
2019-05-19T11:26:36.212Z,4.65
2019-05-19T11:29:03.553Z,5.05
2019-05-19T11:31:30.894Z,5.30
2019-05-19T11:33:58.216Z,5.10
2019-05-19T11:36:25.550Z,5.47
2019-05-19T11:38:52.906Z,5.92
2019-05-19T11:41:20.273Z,4.80
2019-05-19T11:43:47.598Z,5.37
2019-05-19T11:46:14.922Z,4.95
2019-05-19T11:48:42.293Z,4.83
2019-05-19T11:51:10.188Z,3.98
2019-05-19T11:53:37.509Z,4.00
2019-05-19T11:56:08.023Z,4.40
2019-05-19T11:58:33.816Z,3.22
2019-05-19T12:01:01.317Z,3.58
2019-05-19T12:03:28.625Z,2.83
2019-05-19T12:05:55.987Z,3.40
2019-05-19T12:08:23.311Z,3.85
2019-05-19T12:10:50.628Z,3.22
2019-05-19T12:13:17.989Z,2.33
2019-05-19T12:15:45.374Z,2.70
2019-05-19T12:18:12.829Z,2.50
2019-05-19T12:20:40.162Z,3.22
2019-05-19T12:23:07.479Z,3.02
2019-05-19T12:25:34.828Z,2.90
2019-05-19T12:28:02.365Z,3.22
2019-05-19T12:30:29.801Z,2.45
2019-05-19T12:32:59.310Z,2.77
2019-05-19T12:35:26.093Z,3.25
2019-05-19T12:37:53.393Z,4.20
2019-05-19T12:40:22.689Z,4.08
2019-05-19T12:42:49.783Z,3.83
2019-05-19T12:45:17.106Z,4.70
2019-05-19T12:47:44.489Z,4.25
2019-05-19T12:50:12.119Z,4.65
2019-05-19T12:52:39.481Z,3.98
2019-05-19T12:55:06.848Z,3.50
2019-05-19T12:57:34.137Z,3.92
2019-05-19T13:00:01.495Z,3.50
2019-05-19T13:02:28.858Z,3.90
2019-05-19T13:05:05.115Z,4.08
2019-05-19T13:07:25.238Z,3.52
2019-05-19T13:09:52.565Z,4.40
2019-05-19T13:12:19.958Z,4.00
2019-05-19T13:14:47.274Z,4.12
2019-05-19T13:17:14.969Z,3.40
2019-05-19T13:19:42.297Z,4.40
2019-05-19T13:22:09.978Z,2.80
2019-05-19T13:24:37.285Z,2.80
2019-05-19T13:27:04.731Z,1.35
2019-05-19T13:29:32.079Z,1.10
2019-05-19T13:31:59.393Z,1.20
2019-05-19T13:34:26.729Z,1.10
2019-05-19T13:36:54.030Z,1.00
2019-05-19T13:39:21.363Z,0.80
2019-05-19T13:41:48.671Z,1.12
2019-05-19T13:44:16.209Z,1.75
2019-05-19T13:46:43.730Z,1.52
2019-05-19T13:49:11.257Z,1.45
2019-05-19T13:51:38.512Z,1.10
2019-05-19T13:54:05.881Z,1.17
2019-05-19T13:56:33.201Z,1.20
2019-05-19T13:59:01.586Z,1.25
2019-05-19T14:01:29.120Z,1.40
2019-05-19T14:03:56.682Z,1.40
2019-05-19T14:06:24.009Z,1.30
2019-05-19T14:08:51.335Z,1.50
2019-05-19T14:11:19.153Z,1.40
2019-05-19T14:13:46.484Z,1.70
2019-05-19T14:16:13.846Z,1.70
2019-05-19T14:18:41.151Z,1.40
2019-05-19T14:21:08.499Z,1.62
2019-05-19T14:23:35.837Z,2.12
2019-05-19T14:26:03.165Z,1.80
2019-05-19T14:28:30.499Z,2.02
2019-05-19T14:30:57.817Z,1.98
2019-05-19T14:33:25.144Z,1.75
2019-05-19T14:35:52.479Z,2.37
2019-05-19T14:38:19.849Z,1.92
2019-05-19T14:40:47.165Z,2.00
2019-05-19T14:43:16.203Z,3.20
2019-05-19T14:45:43.733Z,2.52
2019-05-19T14:48:11.044Z,2.42
2019-05-19T14:50:38.477Z,3.00
2019-05-19T14:53:05.855Z,3.17
2019-05-19T14:55:33.175Z,4.40
2019-05-19T14:58:00.568Z,5.10
2019-05-19T15:00:27.939Z,5.03
2019-05-19T15:02:55.253Z,3.92
2019-05-19T15:05:23.070Z,3.58
2019-05-19T15:07:50.436Z,4.35
2019-05-19T15:10:17.778Z,4.47
2019-05-19T15:12:45.115Z,3.92
2019-05-19T15:15:12.447Z,3.60
2019-05-19T15:17:39.768Z,4.53
2019-05-19T15:20:08.721Z,4.50
2019-05-19T15:22:36.056Z,4.47
2019-05-19T15:25:03.489Z,3.58
2019-05-19T15:27:30.881Z,2.95
2019-05-19T15:30:11.814Z,2.10
2019-05-19T15:32:27.414Z,2.02
2019-05-19T15:34:54.778Z,2.30
2019-05-19T15:37:22.084Z,1.72
2019-05-19T15:39:49.432Z,1.62
2019-05-19T15:42:16.826Z,1.92
2019-05-19T15:44:44.169Z,2.20
2019-05-19T15:47:11.522Z,2.47
2019-05-19T15:49:38.799Z,2.30
2019-05-19T15:52:06.594Z,2.50
2019-05-19T15:54:34.183Z,2.50
2019-05-19T15:57:01.514Z,2.30
2019-05-19T15:59:28.988Z,3.00
2019-05-19T16:01:56.297Z,3.10
2019-05-19T16:04:23.622Z,2.75
2019-05-19T16:06:51.094Z,2.60
2019-05-19T16:09:18.388Z,2.15
2019-05-19T16:11:45.716Z,2.25
2019-05-19T16:14:13.048Z,2.55
2019-05-19T16:16:40.367Z,2.20
2019-05-19T16:19:07.726Z,2.17
2019-05-19T16:21:35.114Z,2.58
2019-05-19T16:24:02.532Z,1.92
2019-05-19T16:26:29.788Z,2.40
2019-05-19T16:28:57.127Z,1.70
2019-05-19T16:31:24.464Z,2.08
2019-05-19T16:33:51.810Z,1.65
2019-05-19T16:36:19.146Z,1.67
2019-05-19T16:38:46.460Z,1.70
2019-05-19T16:41:13.816Z,1.93
2019-05-19T16:43:41.205Z,2.47
2019-05-19T16:46:08.574Z,2.40
2019-05-19T16:48:35.911Z,1.95
2019-05-19T16:51:03.226Z,2.07
2019-05-19T16:53:30.866Z,2.20
2019-05-19T16:55:58.171Z,2.00
2019-05-19T16:58:25.513Z,2.07
2019-05-19T17:00:52.843Z,2.73
2019-05-19T17:03:20.150Z,2.80
2019-05-19T17:05:47.508Z,3.47
2019-05-19T17:08:14.856Z,2.63
2019-05-19T17:10:42.211Z,3.37
2019-05-19T17:13:09.530Z,3.20
2019-05-19T17:15:36.860Z,3.30
2019-05-19T17:18:04.184Z,3.27
2019-05-19T17:20:31.496Z,2.77
2019-05-19T17:22:58.844Z,3.55
2019-05-19T17:25:26.260Z,2.72
2019-05-19T17:27:53.716Z,3.25
2019-05-19T17:30:21.103Z,3.65
2019-05-19T17:32:48.562Z,3.50
2019-05-19T17:35:16.376Z,3.90
2019-05-19T17:37:43.755Z,3.47
2019-05-19T17:40:11.211Z,5.00
2019-05-19T17:42:38.684Z,4.17
2019-05-19T17:45:06.307Z,5.12
2019-05-19T17:47:33.763Z,6.20
2019-05-19T17:50:01.205Z,6.87
2019-05-19T17:52:28.560Z,6.25
2019-05-19T17:54:58.793Z,6.28
2019-05-19T17:57:26.300Z,6.50
2019-05-19T17:59:53.686Z,7.25
2019-05-19T18:02:21.078Z,7.58
2019-05-19T18:04:48.447Z,6.15
2019-05-19T18:07:16.001Z,6.50
2019-05-19T18:09:43.468Z,6.15
2019-05-19T18:12:11.178Z,4.95
2019-05-19T18:14:38.650Z,5.62
2019-05-19T18:17:06.143Z,7.12
2019-05-19T18:19:33.448Z,6.75
2019-05-19T18:22:00.787Z,10.75
2019-05-19T18:24:28.169Z,10.43
2019-05-19T18:26:55.492Z,6.67
2019-05-19T18:29:30.943Z,9.08
2019-05-19T18:31:51.839Z,8.50
2019-05-19T18:34:19.155Z,8.05
2019-05-19T18:36:46.649Z,8.17
2019-05-19T18:39:14.103Z,7.62
2019-05-19T18:41:41.474Z,7.23
2019-05-19T18:44:09.441Z,7.15
2019-05-19T18:46:36.961Z,7.00
2019-05-19T18:49:04.541Z,6.72
2019-05-19T18:51:31.914Z,8.03
2019-05-19T18:53:59.237Z,7.07
2019-05-19T18:56:26.639Z,6.62
2019-05-19T18:58:53.974Z,5.87
2019-05-19T19:01:21.377Z,6.63
2019-05-19T19:03:48.761Z,6.20
2019-05-19T19:06:16.174Z,7.25
2019-05-19T19:08:43.463Z,6.47
2019-05-19T19:11:10.825Z,6.83
2019-05-19T19:13:38.145Z,6.97
2019-05-19T19:16:05.468Z,6.97
2019-05-19T19:18:32.801Z,6.93
2019-05-19T19:21:00.173Z,7.70
2019-05-19T19:23:27.509Z,8.03
2019-05-19T19:25:54.907Z,8.43
2019-05-19T19:28:22.209Z,11.77
2019-05-19T19:30:49.559Z,10.20
2019-05-19T19:33:16.910Z,9.93
2019-05-19T19:35:44.574Z,9.13
2019-05-19T19:38:11.926Z,8.87
2019-05-19T19:40:39.256Z,7.80
2019-05-19T19:43:06.683Z,7.45
2019-05-19T19:45:34.062Z,7.37
2019-05-19T19:48:01.423Z,8.03
2019-05-19T19:50:28.744Z,7.92
2019-05-19T19:52:56.076Z,7.80
2019-05-19T19:55:23.580Z,7.07
2019-05-19T19:57:50.912Z,7.30
2019-05-19T20:00:23.436Z,7.67
2019-05-19T20:02:50.964Z,7.27
2019-05-19T20:05:18.275Z,8.03
2019-05-19T20:07:45.604Z,8.07
2019-05-19T20:10:12.934Z,7.97
2019-05-19T20:12:40.403Z,9.90
2019-05-19T20:15:10.602Z,9.80
2019-05-19T20:17:38.091Z,8.00
2019-05-19T20:20:05.583Z,7.97
2019-05-19T20:22:32.925Z,7.73
2019-05-19T20:25:00.239Z,8.87
2019-05-19T20:27:27.607Z,10.03
2019-05-19T20:29:54.959Z,12.77
2019-05-19T20:32:22.352Z,12.43
2019-05-19T20:34:49.888Z,16.73
2019-05-19T20:37:17.180Z,13.57
2019-05-19T20:39:44.597Z,13.83
2019-05-19T20:42:12.043Z,12.73
2019-05-19T20:44:39.406Z,11.00
2019-05-19T20:47:06.740Z,11.43
2019-05-19T20:49:34.168Z,10.90
2019-05-19T20:52:01.504Z,9.13
2019-05-19T20:54:28.950Z,9.10
2019-05-19T20:56:56.305Z,8.30
2019-05-19T20:59:25.386Z,8.57
2019-05-19T21:01:52.812Z,8.73
2019-05-19T21:04:20.499Z,8.90
2019-05-19T21:06:47.824Z,8.43
2019-05-19T21:09:15.160Z,8.73
2019-05-19T21:11:42.504Z,8.97
2019-05-19T21:14:09.836Z,9.30
2019-05-19T21:16:37.156Z,9.00
2019-05-19T21:19:05.252Z,9.10
2019-05-19T21:21:32.568Z,8.87
2019-05-19T21:23:59.941Z,9.47
2019-05-19T21:26:27.248Z,8.90
2019-05-19T21:28:54.598Z,9.20
2019-05-19T21:31:21.924Z,8.87
2019-05-19T21:33:49.283Z,9.30
2019-05-19T21:36:17.991Z,8.87
2019-05-19T21:38:45.309Z,9.37
2019-05-19T21:41:12.640Z,9.03
2019-05-19T21:43:39.978Z,8.87
2019-05-19T21:46:08.448Z,9.73
2019-05-19T21:48:35.802Z,9.57
2019-05-19T21:51:03.122Z,9.47
2019-05-19T21:53:30.526Z,9.60
2019-05-19T21:55:57.866Z,9.10
2019-05-19T21:58:25.210Z,8.90
2019-05-19T22:00:52.626Z,10.03
2019-05-19T22:03:19.984Z,10.27
2019-05-19T22:05:53.262Z,10.27
2019-05-19T22:08:18.020Z,9.17
2019-05-19T22:10:45.365Z,9.57
2019-05-19T22:13:13.852Z,9.07
2019-05-19T22:15:41.167Z,9.07
2019-05-19T22:18:08.505Z,9.37
2019-05-19T22:20:35.924Z,8.90
2019-05-19T22:23:03.271Z,9.73
2019-05-19T22:25:30.622Z,10.10
2019-05-19T22:27:58.429Z,10.43
2019-05-19T22:30:25.796Z,10.13
2019-05-19T22:32:53.316Z,10.17
2019-05-19T22:35:20.660Z,11.60
2019-05-19T22:37:48.022Z,10.23
2019-05-19T22:40:15.776Z,11.47
2019-05-19T22:42:43.264Z,11.70
2019-05-19T22:45:10.653Z,11.67
2019-05-19T22:47:38.020Z,11.70
2019-05-19T22:50:06.705Z,11.27
2019-05-19T22:52:34.146Z,12.60
2019-05-19T22:55:01.478Z,11.67
2019-05-19T22:57:28.935Z,12.13
2019-05-19T22:59:56.268Z,11.50
2019-05-19T23:02:23.793Z,12.40
2019-05-19T23:04:51.336Z,11.37
2019-05-19T23:07:18.828Z,10.97
2019-05-19T23:22:44.383Z,11.00
2019-05-19T23:25:11.703Z,11.43
2019-05-19T23:27:39.138Z,11.50
2019-05-19T23:30:06.949Z,12.13
2019-05-19T23:32:34.353Z,12.67
2019-05-19T23:35:01.672Z,13.27
2019-05-19T23:37:29.028Z,13.63
2019-05-19T23:39:57.147Z,13.80
2019-05-19T23:42:24.502Z,14.20
2019-05-19T23:44:51.841Z,15.67
2019-05-19T23:47:19.274Z,14.77
2019-05-19T23:49:46.602Z,14.20
2019-05-19T23:52:14.072Z,14.40
2019-05-19T23:54:42.824Z,15.03
2019-05-19T23:57:10.205Z,15.03
2019-05-19T23:59:37.539Z,15.77
